sensor_id;sensor_type;location;lat;lon;timestamp;temperature;humidity
78345;DHT22;67620;51.134;6.548;2023-02-15T00:00:07;4.20;75.40
78345;DHT22;67620;51.134;6.548;2023-02-15T00:02:36;4.20;75.40
78345;DHT22;67620;51.134;6.548;2023-02-15T00:05:02;4.20;75.30
78345;DHT22;67620;51.134;6.548;2023-02-15T00:07:27;4.20;75.50
78345;DHT22;67620;51.134;6.548;2023-02-15T00:09:53;4.20;75.60
78345;DHT22;67620;51.134;6.548;2023-02-15T00:12:18;4.10;75.70
78345;DHT22;67620;51.134;6.548;2023-02-15T00:14:44;4.10;75.50
78345;DHT22;67620;51.134;6.548;2023-02-15T00:17:09;4.00;75.70
78345;DHT22;67620;51.134;6.548;2023-02-15T00:19:35;4.00;75.70
78345;DHT22;67620;51.134;6.548;2023-02-15T00:22:01;3.90;76.10
78345;DHT22;67620;51.134;6.548;2023-02-15T00:24:26;3.90;76.40
78345;DHT22;67620;51.134;6.548;2023-02-15T00:26:52;4.00;75.80
78345;DHT22;67620;51.134;6.548;2023-02-15T00:29:19;4.00;75.50
78345;DHT22;67620;51.134;6.548;2023-02-15T00:31:45;4.00;75.70
78345;DHT22;67620;51.134;6.548;2023-02-15T00:34:16;3.80;76.10
78345;DHT22;67620;51.134;6.548;2023-02-15T00:36:43;3.90;75.80
78345;DHT22;67620;51.134;6.548;2023-02-15T00:39:08;3.90;75.90
78345;DHT22;67620;51.134;6.548;2023-02-15T00:41:34;4.00;75.90
78345;DHT22;67620;51.134;6.548;2023-02-15T00:44:00;3.90;75.70
78345;DHT22;67620;51.134;6.548;2023-02-15T00:46:25;3.90;76.10
78345;DHT22;67620;51.134;6.548;2023-02-15T00:48:51;3.90;75.60
78345;DHT22;67620;51.134;6.548;2023-02-15T00:51:16;3.80;76.10
78345;DHT22;67620;51.134;6.548;2023-02-15T00:53:43;3.80;76.00
78345;DHT22;67620;51.134;6.548;2023-02-15T00:56:09;3.80;76.20
78345;DHT22;67620;51.134;6.548;2023-02-15T00:58:35;3.90;75.70
78345;DHT22;67620;51.134;6.548;2023-02-15T01:01:10;3.90;75.50
78345;DHT22;67620;51.134;6.548;2023-02-15T01:03:36;3.70;75.90
78345;DHT22;67620;51.134;6.548;2023-02-15T01:06:02;3.70;76.10
78345;DHT22;67620;51.134;6.548;2023-02-15T01:08:29;3.80;75.60
78345;DHT22;67620;51.134;6.548;2023-02-15T01:10:55;3.70;75.80
78345;DHT22;67620;51.134;6.548;2023-02-15T01:13:21;3.70;76.20
78345;DHT22;67620;51.134;6.548;2023-02-15T01:15:53;3.70;75.90
78345;DHT22;67620;51.134;6.548;2023-02-15T01:18:18;3.60;76.40
78345;DHT22;67620;51.134;6.548;2023-02-15T01:20:45;3.60;76.30
78345;DHT22;67620;51.134;6.548;2023-02-15T01:23:10;3.60;76.30
78345;DHT22;67620;51.134;6.548;2023-02-15T01:25:36;3.60;76.30
78345;DHT22;67620;51.134;6.548;2023-02-15T01:28:02;3.60;75.90
78345;DHT22;67620;51.134;6.548;2023-02-15T01:30:28;3.60;75.90
78345;DHT22;67620;51.134;6.548;2023-02-15T01:32:54;3.60;75.70
78345;DHT22;67620;51.134;6.548;2023-02-15T01:35:19;3.60;75.90
78345;DHT22;67620;51.134;6.548;2023-02-15T01:37:45;3.70;75.50
78345;DHT22;67620;51.134;6.548;2023-02-15T01:40:15;3.50;76.00
78345;DHT22;67620;51.134;6.548;2023-02-15T01:42:41;3.40;76.30
78345;DHT22;67620;51.134;6.548;2023-02-15T01:45:18;3.50;76.00
78345;DHT22;67620;51.134;6.548;2023-02-15T01:47:46;3.40;76.50
78345;DHT22;67620;51.134;6.548;2023-02-15T01:50:16;3.40;76.40
78345;DHT22;67620;51.134;6.548;2023-02-15T01:53:01;3.50;76.00
78345;DHT22;67620;51.134;6.548;2023-02-15T01:55:32;3.40;76.10
78345;DHT22;67620;51.134;6.548;2023-02-15T01:57:58;3.30;76.60
78345;DHT22;67620;51.134;6.548;2023-02-15T02:00:25;3.40;76.40
78345;DHT22;67620;51.134;6.548;2023-02-15T02:02:53;3.40;76.20
78345;DHT22;67620;51.134;6.548;2023-02-15T02:05:20;3.40;76.30
78345;DHT22;67620;51.134;6.548;2023-02-15T02:07:46;3.30;76.40
78345;DHT22;67620;51.134;6.548;2023-02-15T02:10:17;3.40;76.50
78345;DHT22;67620;51.134;6.548;2023-02-15T02:12:45;3.40;76.40
78345;DHT22;67620;51.134;6.548;2023-02-15T02:15:12;3.30;76.50
78345;DHT22;67620;51.134;6.548;2023-02-15T02:18:08;3.40;76.50
78345;DHT22;67620;51.134;6.548;2023-02-15T02:35:15;3.20;76.60
78345;DHT22;67620;51.134;6.548;2023-02-15T02:37:50;3.20;76.50
78345;DHT22;67620;51.134;6.548;2023-02-15T02:40:59;3.20;76.60
78345;DHT22;67620;51.134;6.548;2023-02-15T02:43:48;3.20;76.80
78345;DHT22;67620;51.134;6.548;2023-02-15T02:46:53;3.10;76.70
78345;DHT22;67620;51.134;6.548;2023-02-15T02:49:40;3.10;76.80
78345;DHT22;67620;51.134;6.548;2023-02-15T02:55:16;3.00;77.60
78345;DHT22;67620;51.134;6.548;2023-02-15T03:00:15;3.10;76.90
78345;DHT22;67620;51.134;6.548;2023-02-15T03:02:44;3.00;77.20
78345;DHT22;67620;51.134;6.548;2023-02-15T03:05:15;3.10;77.00
78345;DHT22;67620;51.134;6.548;2023-02-15T03:07:47;3.10;76.70
78345;DHT22;67620;51.134;6.548;2023-02-15T03:10:14;3.00;77.20
78345;DHT22;67620;51.134;6.548;2023-02-15T03:12:40;3.10;76.90
78345;DHT22;67620;51.134;6.548;2023-02-15T03:15:10;3.00;77.10
78345;DHT22;67620;51.134;6.548;2023-02-15T03:17:40;3.00;77.10
78345;DHT22;67620;51.134;6.548;2023-02-15T03:20:16;2.90;77.60
78345;DHT22;67620;51.134;6.548;2023-02-15T03:22:59;2.90;77.60
78345;DHT22;67620;51.134;6.548;2023-02-15T03:25:42;2.90;77.40
78345;DHT22;67620;51.134;6.548;2023-02-15T03:28:13;2.90;77.80
78345;DHT22;67620;51.134;6.548;2023-02-15T03:30:42;2.90;77.60
78345;DHT22;67620;51.134;6.548;2023-02-15T03:33:10;2.90;77.80
78345;DHT22;67620;51.134;6.548;2023-02-15T03:35:49;2.80;77.90
78345;DHT22;67620;51.134;6.548;2023-02-15T03:38:21;2.80;77.80
78345;DHT22;67620;51.134;6.548;2023-02-15T03:40:53;2.80;77.90
78345;DHT22;67620;51.134;6.548;2023-02-15T03:43:39;2.80;77.80
78345;DHT22;67620;51.134;6.548;2023-02-15T03:46:30;2.80;78.00
78345;DHT22;67620;51.134;6.548;2023-02-15T03:49:10;2.90;77.40
78345;DHT22;67620;51.134;6.548;2023-02-15T03:51:40;2.80;77.50
78345;DHT22;67620;51.134;6.548;2023-02-15T03:54:14;2.80;77.40
78345;DHT22;67620;51.134;6.548;2023-02-15T03:57:01;2.80;77.70
78345;DHT22;67620;51.134;6.548;2023-02-15T03:59:45;2.80;77.60
78345;DHT22;67620;51.134;6.548;2023-02-15T04:02:36;2.70;78.00
78345;DHT22;67620;51.134;6.548;2023-02-15T04:05:03;2.70;78.10
78345;DHT22;67620;51.134;6.548;2023-02-15T04:07:29;2.70;77.80
78345;DHT22;67620;51.134;6.548;2023-02-15T04:09:54;2.70;77.70
78345;DHT22;67620;51.134;6.548;2023-02-15T04:12:38;2.70;77.60
78345;DHT22;67620;51.134;6.548;2023-02-15T04:15:04;2.60;77.80
78345;DHT22;67620;51.134;6.548;2023-02-15T04:17:48;2.60;78.00
78345;DHT22;67620;51.134;6.548;2023-02-15T04:20:14;2.50;78.20
78345;DHT22;67620;51.134;6.548;2023-02-15T04:22:58;2.60;77.80
78345;DHT22;67620;51.134;6.548;2023-02-15T04:25:42;2.60;77.70
78345;DHT22;67620;51.134;6.548;2023-02-15T04:28:07;2.40;78.70
78345;DHT22;67620;51.134;6.548;2023-02-15T04:30:33;2.50;78.50
78345;DHT22;67620;51.134;6.548;2023-02-15T04:32:58;2.50;78.50
78345;DHT22;67620;51.134;6.548;2023-02-15T04:35:24;2.60;78.30
78345;DHT22;67620;51.134;6.548;2023-02-15T04:37:50;2.50;78.20
78345;DHT22;67620;51.134;6.548;2023-02-15T04:40:16;2.40;78.50
78345;DHT22;67620;51.134;6.548;2023-02-15T04:42:42;2.50;78.50
78345;DHT22;67620;51.134;6.548;2023-02-15T04:45:07;2.60;78.30
78345;DHT22;67620;51.134;6.548;2023-02-15T04:47:33;2.50;78.20
78345;DHT22;67620;51.134;6.548;2023-02-15T04:49:58;2.60;77.70
78345;DHT22;67620;51.134;6.548;2023-02-15T04:52:24;2.60;78.00
78345;DHT22;67620;51.134;6.548;2023-02-15T04:54:50;2.40;78.40
78345;DHT22;67620;51.134;6.548;2023-02-15T04:57:15;2.40;78.60
78345;DHT22;67620;51.134;6.548;2023-02-15T04:59:41;2.40;79.00
78345;DHT22;67620;51.134;6.548;2023-02-15T05:02:06;2.30;79.00
78345;DHT22;67620;51.134;6.548;2023-02-15T05:04:32;2.40;79.20
78345;DHT22;67620;51.134;6.548;2023-02-15T05:06:57;2.40;79.00
78345;DHT22;67620;51.134;6.548;2023-02-15T05:09:24;2.40;79.00
78345;DHT22;67620;51.134;6.548;2023-02-15T05:11:49;2.20;79.70
78345;DHT22;67620;51.134;6.548;2023-02-15T05:14:15;2.30;79.40
78345;DHT22;67620;51.134;6.548;2023-02-15T05:16:40;2.20;79.50
78345;DHT22;67620;51.134;6.548;2023-02-15T05:19:06;2.20;79.70
78345;DHT22;67620;51.134;6.548;2023-02-15T05:21:32;2.30;79.30
78345;DHT22;67620;51.134;6.548;2023-02-15T05:23:58;2.20;79.70
78345;DHT22;67620;51.134;6.548;2023-02-15T05:26:24;2.20;79.80
78345;DHT22;67620;51.134;6.548;2023-02-15T05:29:16;2.30;79.20
78345;DHT22;67620;51.134;6.548;2023-02-15T05:31:42;2.20;79.40
78345;DHT22;67620;51.134;6.548;2023-02-15T05:34:12;2.30;79.10
78345;DHT22;67620;51.134;6.548;2023-02-15T05:36:39;2.20;79.30
78345;DHT22;67620;51.134;6.548;2023-02-15T05:39:04;2.20;79.50
78345;DHT22;67620;51.134;6.548;2023-02-15T05:41:31;2.20;79.40
78345;DHT22;67620;51.134;6.548;2023-02-15T05:43:56;2.20;79.30
78345;DHT22;67620;51.134;6.548;2023-02-15T05:46:22;2.30;79.10
78345;DHT22;67620;51.134;6.548;2023-02-15T05:48:47;2.20;79.20
78345;DHT22;67620;51.134;6.548;2023-02-15T05:51:13;2.20;79.40
78345;DHT22;67620;51.134;6.548;2023-02-15T05:53:40;2.10;79.80
78345;DHT22;67620;51.134;6.548;2023-02-15T05:56:07;2.10;79.70
78345;DHT22;67620;51.134;6.548;2023-02-15T05:58:36;2.30;79.10
78345;DHT22;67620;51.134;6.548;2023-02-15T06:01:13;2.30;78.90
78345;DHT22;67620;51.134;6.548;2023-02-15T06:03:39;2.20;79.00
78345;DHT22;67620;51.134;6.548;2023-02-15T06:06:05;2.20;79.10
78345;DHT22;67620;51.134;6.548;2023-02-15T06:08:31;2.10;79.50
78345;DHT22;67620;51.134;6.548;2023-02-15T06:10:57;2.10;79.30
78345;DHT22;67620;51.134;6.548;2023-02-15T06:13:23;2.10;79.20
78345;DHT22;67620;51.134;6.548;2023-02-15T06:15:48;2.20;79.10
78345;DHT22;67620;51.134;6.548;2023-02-15T06:18:14;2.10;79.20
78345;DHT22;67620;51.134;6.548;2023-02-15T06:20:39;2.00;79.80
78345;DHT22;67620;51.134;6.548;2023-02-15T06:23:05;2.00;79.90
78345;DHT22;67620;51.134;6.548;2023-02-15T06:25:30;2.10;79.50
78345;DHT22;67620;51.134;6.548;2023-02-15T06:27:56;2.10;79.40
78345;DHT22;67620;51.134;6.548;2023-02-15T06:30:22;2.00;79.30
78345;DHT22;67620;51.134;6.548;2023-02-15T06:32:47;2.00;79.70
78345;DHT22;67620;51.134;6.548;2023-02-15T06:35:13;2.00;79.70
78345;DHT22;67620;51.134;6.548;2023-02-15T06:37:38;2.00;79.80
78345;DHT22;67620;51.134;6.548;2023-02-15T06:40:05;2.00;79.80
78345;DHT22;67620;51.134;6.548;2023-02-15T06:42:31;2.00;79.90
78345;DHT22;67620;51.134;6.548;2023-02-15T06:44:56;2.00;79.70
78345;DHT22;67620;51.134;6.548;2023-02-15T06:47:22;2.00;79.80
78345;DHT22;67620;51.134;6.548;2023-02-15T06:49:47;2.00;79.70
78345;DHT22;67620;51.134;6.548;2023-02-15T06:52:13;2.00;79.90
78345;DHT22;67620;51.134;6.548;2023-02-15T06:54:39;2.00;79.60
78345;DHT22;67620;51.134;6.548;2023-02-15T06:57:04;2.10;79.50
78345;DHT22;67620;51.134;6.548;2023-02-15T06:59:30;2.00;79.60
78345;DHT22;67620;51.134;6.548;2023-02-15T07:01:55;2.10;79.50
78345;DHT22;67620;51.134;6.548;2023-02-15T07:04:21;2.00;79.70
78345;DHT22;67620;51.134;6.548;2023-02-15T07:06:46;2.00;80.10
78345;DHT22;67620;51.134;6.548;2023-02-15T07:09:12;2.00;80.00
78345;DHT22;67620;51.134;6.548;2023-02-15T07:11:38;2.00;80.00
78345;DHT22;67620;51.134;6.548;2023-02-15T07:14:22;2.00;79.90
78345;DHT22;67620;51.134;6.548;2023-02-15T07:16:48;2.00;79.90
78345;DHT22;67620;51.134;6.548;2023-02-15T07:19:14;2.00;80.20
78345;DHT22;67620;51.134;6.548;2023-02-15T07:21:39;2.10;80.00
78345;DHT22;67620;51.134;6.548;2023-02-15T07:24:05;2.00;80.40
78345;DHT22;67620;51.134;6.548;2023-02-15T07:26:31;2.00;80.40
78345;DHT22;67620;51.134;6.548;2023-02-15T07:28:57;2.10;80.30
78345;DHT22;67620;51.134;6.548;2023-02-15T07:31:22;2.10;80.40
78345;DHT22;67620;51.134;6.548;2023-02-15T07:33:49;2.10;80.40
78345;DHT22;67620;51.134;6.548;2023-02-15T07:36:15;2.20;80.20
78345;DHT22;67620;51.134;6.548;2023-02-15T07:38:41;2.20;80.30
78345;DHT22;67620;51.134;6.548;2023-02-15T07:41:09;2.20;80.40
78345;DHT22;67620;51.134;6.548;2023-02-15T07:43:40;2.20;80.20
78345;DHT22;67620;51.134;6.548;2023-02-15T07:46:11;2.30;80.10
78345;DHT22;67620;51.134;6.548;2023-02-15T07:48:38;2.30;80.00
78345;DHT22;67620;51.134;6.548;2023-02-15T07:51:06;2.40;79.90
78345;DHT22;67620;51.134;6.548;2023-02-15T07:53:33;2.50;79.30
78345;DHT22;67620;51.134;6.548;2023-02-15T07:56:05;2.50;79.50
78345;DHT22;67620;51.134;6.548;2023-02-15T07:58:32;2.60;79.30
78345;DHT22;67620;51.134;6.548;2023-02-15T08:01:35;3.30;76.70
78345;DHT22;67620;51.134;6.548;2023-02-15T08:04:03;3.30;76.30
78345;DHT22;67620;51.134;6.548;2023-02-15T08:06:32;3.30;76.20
78345;DHT22;67620;51.134;6.548;2023-02-15T08:08:58;3.20;76.60
78345;DHT22;67620;51.134;6.548;2023-02-15T08:11:27;3.20;76.90
78345;DHT22;67620;51.134;6.548;2023-02-15T08:14:06;3.10;77.10
78345;DHT22;67620;51.134;6.548;2023-02-15T08:16:47;3.30;76.90
78345;DHT22;67620;51.134;6.548;2023-02-15T08:19:23;3.50;76.50
78345;DHT22;67620;51.134;6.548;2023-02-15T08:22:00;3.60;76.10
78345;DHT22;67620;51.134;6.548;2023-02-15T08:24:31;4.50;73.60
78345;DHT22;67620;51.134;6.548;2023-02-15T08:26:57;6.10;67.80
78345;DHT22;67620;51.134;6.548;2023-02-15T08:29:25;7.00;63.90
78345;DHT22;67620;51.134;6.548;2023-02-15T08:31:57;7.40;61.90
78345;DHT22;67620;51.134;6.548;2023-02-15T08:34:29;7.90;60.20
78345;DHT22;67620;51.134;6.548;2023-02-15T08:36:56;8.40;58.40
78345;DHT22;67620;51.134;6.548;2023-02-15T08:39:21;8.70;57.40
78345;DHT22;67620;51.134;6.548;2023-02-15T08:41:47;8.70;56.70
78345;DHT22;67620;51.134;6.548;2023-02-15T08:44:14;8.50;57.20
78345;DHT22;67620;51.134;6.548;2023-02-15T08:46:42;9.00;56.60
78345;DHT22;67620;51.134;6.548;2023-02-15T08:49:08;9.50;55.30
78345;DHT22;67620;51.134;6.548;2023-02-15T08:51:36;9.70;54.90
78345;DHT22;67620;51.134;6.548;2023-02-15T08:54:04;10.20;53.60
78345;DHT22;67620;51.134;6.548;2023-02-15T08:56:34;10.60;52.70
78345;DHT22;67620;51.134;6.548;2023-02-15T08:59:00;10.70;51.80
78345;DHT22;67620;51.134;6.548;2023-02-15T09:01:26;10.80;52.00
78345;DHT22;67620;51.134;6.548;2023-02-15T09:04:02;11.20;51.40
78345;DHT22;67620;51.134;6.548;2023-02-15T09:06:29;11.50;50.70
78345;DHT22;67620;51.134;6.548;2023-02-15T09:08:55;11.60;49.80
78345;DHT22;67620;51.134;6.548;2023-02-15T09:11:24;11.80;49.90
78345;DHT22;67620;51.134;6.548;2023-02-15T09:13:53;12.20;48.80
78345;DHT22;67620;51.134;6.548;2023-02-15T09:16:20;12.70;47.80
78345;DHT22;67620;51.134;6.548;2023-02-15T09:18:46;12.60;47.70
78345;DHT22;67620;51.134;6.548;2023-02-15T09:21:13;12.40;48.10
78345;DHT22;67620;51.134;6.548;2023-02-15T09:23:40;12.50;48.20
78345;DHT22;67620;51.134;6.548;2023-02-15T09:26:08;12.60;48.20
78345;DHT22;67620;51.134;6.548;2023-02-15T09:28:35;13.00;47.50
78345;DHT22;67620;51.134;6.548;2023-02-15T09:31:16;13.50;47.00
78345;DHT22;67620;51.134;6.548;2023-02-15T09:33:43;13.20;46.90
78345;DHT22;67620;51.134;6.548;2023-02-15T09:36:26;13.40;46.70
78345;DHT22;67620;51.134;6.548;2023-02-15T09:39:09;13.60;46.20
78345;DHT22;67620;51.134;6.548;2023-02-15T09:53:35;14.80;44.70
78345;DHT22;67620;51.134;6.548;2023-02-15T09:56:26;15.10;43.50
78345;DHT22;67620;51.134;6.548;2023-02-15T09:59:14;14.70;44.00
78345;DHT22;67620;51.134;6.548;2023-02-15T10:01:48;13.50;46.80
78345;DHT22;67620;51.134;6.548;2023-02-15T10:04:43;12.20;50.10
78345;DHT22;67620;51.134;6.548;2023-02-15T10:07:47;11.60;52.30
78345;DHT22;67620;51.134;6.548;2023-02-15T10:16:00;10.40;56.10
78345;DHT22;67620;51.134;6.548;2023-02-15T10:18:38;10.10;56.90
78345;DHT22;67620;51.134;6.548;2023-02-15T10:21:39;10.30;56.40
78345;DHT22;67620;51.134;6.548;2023-02-15T10:24:39;10.20;56.90
78345;DHT22;67620;51.134;6.548;2023-02-15T10:27:12;10.00;58.30
78345;DHT22;67620;51.134;6.548;2023-02-15T10:29:53;10.00;57.70
78345;DHT22;67620;51.134;6.548;2023-02-15T10:32:26;9.80;58.40
78345;DHT22;67620;51.134;6.548;2023-02-15T10:35:01;9.90;58.80
78345;DHT22;67620;51.134;6.548;2023-02-15T10:37:49;9.80;58.90
78345;DHT22;67620;51.134;6.548;2023-02-15T10:45:48;9.80;59.10
78345;DHT22;67620;51.134;6.548;2023-02-15T10:48:45;9.60;59.70
78345;DHT22;67620;51.134;6.548;2023-02-15T10:51:26;9.70;59.60
78345;DHT22;67620;51.134;6.548;2023-02-15T10:59:45;9.70;61.20
78345;DHT22;67620;51.134;6.548;2023-02-15T11:05:49;9.70;60.90
78345;DHT22;67620;51.134;6.548;2023-02-15T11:07:49;9.60;61.20
78345;DHT22;67620;51.134;6.548;2023-02-15T11:10:30;9.60;61.50
78345;DHT22;67620;51.134;6.548;2023-02-15T11:13:10;9.60;61.50
78345;DHT22;67620;51.134;6.548;2023-02-15T11:15:49;9.60;60.80
78345;DHT22;67620;51.134;6.548;2023-02-15T11:18:31;9.70;60.30
78345;DHT22;67620;51.134;6.548;2023-02-15T11:21:04;9.60;61.40
78345;DHT22;67620;51.134;6.548;2023-02-15T11:23:35;9.60;62.10
78345;DHT22;67620;51.134;6.548;2023-02-15T11:26:10;9.60;61.40
78345;DHT22;67620;51.134;6.548;2023-02-15T11:28:44;9.60;62.40
78345;DHT22;67620;51.134;6.548;2023-02-15T11:31:22;9.70;61.80
78345;DHT22;67620;51.134;6.548;2023-02-15T11:33:57;9.60;63.30
78345;DHT22;67620;51.134;6.548;2023-02-15T11:36:36;9.60;63.10
78345;DHT22;67620;51.134;6.548;2023-02-15T11:39:09;9.70;63.30
78345;DHT22;67620;51.134;6.548;2023-02-15T11:41:38;9.70;62.70
78345;DHT22;67620;51.134;6.548;2023-02-15T11:46:44;9.70;62.70
78345;DHT22;67620;51.134;6.548;2023-02-15T11:49:32;9.70;63.60
78345;DHT22;67620;51.134;6.548;2023-02-15T11:52:02;9.70;62.30
78345;DHT22;67620;51.134;6.548;2023-02-15T11:54:31;9.70;61.60
78345;DHT22;67620;51.134;6.548;2023-02-15T11:57:36;9.50;63.50
78345;DHT22;67620;51.134;6.548;2023-02-15T12:00:50;9.70;63.20
78345;DHT22;67620;51.134;6.548;2023-02-15T12:03:17;9.80;63.10
78345;DHT22;67620;51.134;6.548;2023-02-15T12:05:46;9.80;62.80
78345;DHT22;67620;51.134;6.548;2023-02-15T12:08:24;9.80;62.90
78345;DHT22;67620;51.134;6.548;2023-02-15T12:10:55;9.90;63.40
78345;DHT22;67620;51.134;6.548;2023-02-15T12:13:22;9.90;62.40
78345;DHT22;67620;51.134;6.548;2023-02-15T12:15:53;9.90;62.60
78345;DHT22;67620;51.134;6.548;2023-02-15T12:18:38;10.00;62.10
78345;DHT22;67620;51.134;6.548;2023-02-15T12:21:11;10.00;62.50
78345;DHT22;67620;51.134;6.548;2023-02-15T12:23:52;10.10;61.50
78345;DHT22;67620;51.134;6.548;2023-02-15T12:26:26;10.10;62.60
78345;DHT22;67620;51.134;6.548;2023-02-15T12:28:52;10.20;61.90
78345;DHT22;67620;51.134;6.548;2023-02-15T12:31:26;10.10;61.60
78345;DHT22;67620;51.134;6.548;2023-02-15T12:33:55;10.10;61.70
78345;DHT22;67620;51.134;6.548;2023-02-15T12:36:25;10.10;62.30
78345;DHT22;67620;51.134;6.548;2023-02-15T12:41:33;10.20;62.10
78345;DHT22;67620;51.134;6.548;2023-02-15T12:44:20;10.30;62.60
78345;DHT22;67620;51.134;6.548;2023-02-15T12:49:38;10.30;61.70
78345;DHT22;67620;51.134;6.548;2023-02-15T12:54:46;10.40;62.20
78345;DHT22;67620;51.134;6.548;2023-02-15T12:59:54;10.50;61.30
78345;DHT22;67620;51.134;6.548;2023-02-15T13:02:30;10.50;60.30
78345;DHT22;67620;51.134;6.548;2023-02-15T13:05:17;10.60;62.00
78345;DHT22;67620;51.134;6.548;2023-02-15T13:07:53;10.60;61.50
78345;DHT22;67620;51.134;6.548;2023-02-15T13:10:23;10.60;61.80
78345;DHT22;67620;51.134;6.548;2023-02-15T13:12:50;10.60;62.00
78345;DHT22;67620;51.134;6.548;2023-02-15T13:15:30;10.60;62.50
78345;DHT22;67620;51.134;6.548;2023-02-15T13:17:58;10.60;61.50
78345;DHT22;67620;51.134;6.548;2023-02-15T13:20:25;10.60;61.90
78345;DHT22;67620;51.134;6.548;2023-02-15T13:23:00;10.60;62.10
78345;DHT22;67620;51.134;6.548;2023-02-15T13:25:30;10.60;61.30
78345;DHT22;67620;51.134;6.548;2023-02-15T13:28:02;10.70;62.10
78345;DHT22;67620;51.134;6.548;2023-02-15T13:30:36;10.80;61.60
78345;DHT22;67620;51.134;6.548;2023-02-15T13:33:05;10.70;61.20
78345;DHT22;67620;51.134;6.548;2023-02-15T13:36:05;10.70;60.90
78345;DHT22;67620;51.134;6.548;2023-02-15T13:38:51;10.70;61.10
78345;DHT22;67620;51.134;6.548;2023-02-15T13:41:33;10.70;60.50
78345;DHT22;67620;51.134;6.548;2023-02-15T13:44:19;10.80;61.80
78345;DHT22;67620;51.134;6.548;2023-02-15T13:47:07;10.80;61.10
78345;DHT22;67620;51.134;6.548;2023-02-15T13:52:31;10.90;60.80
78345;DHT22;67620;51.134;6.548;2023-02-15T14:14:29;11.00;61.80
78345;DHT22;67620;51.134;6.548;2023-02-15T14:17:07;10.90;61.30
78345;DHT22;67620;51.134;6.548;2023-02-15T14:19:52;10.80;61.20
78345;DHT22;67620;51.134;6.548;2023-02-15T14:22:36;10.90;61.10
78345;DHT22;67620;51.134;6.548;2023-02-15T14:25:33;10.80;61.80
78345;DHT22;67620;51.134;6.548;2023-02-15T14:31:09;10.70;61.80
78345;DHT22;67620;51.134;6.548;2023-02-15T14:33:39;10.80;62.50
78345;DHT22;67620;51.134;6.548;2023-02-15T14:36:13;10.80;62.80
78345;DHT22;67620;51.134;6.548;2023-02-15T14:38:59;10.70;62.10
78345;DHT22;67620;51.134;6.548;2023-02-15T14:41:50;10.70;62.40
78345;DHT22;67620;51.134;6.548;2023-02-15T14:45:12;10.70;62.90
78345;DHT22;67620;51.134;6.548;2023-02-15T14:47:34;10.80;63.70
78345;DHT22;67620;51.134;6.548;2023-02-15T14:56:05;10.70;64.00
78345;DHT22;67620;51.134;6.548;2023-02-15T14:58:32;10.70;64.00
78345;DHT22;67620;51.134;6.548;2023-02-15T15:01:06;10.70;64.40
78345;DHT22;67620;51.134;6.548;2023-02-15T15:03:33;10.70;65.50
78345;DHT22;67620;51.134;6.548;2023-02-15T15:06:02;10.60;65.80
78345;DHT22;67620;51.134;6.548;2023-02-15T15:08:38;10.60;66.00
78345;DHT22;67620;51.134;6.548;2023-02-15T15:14:00;10.60;66.70
78345;DHT22;67620;51.134;6.548;2023-02-15T15:19:01;10.50;66.50
78345;DHT22;67620;51.134;6.548;2023-02-15T15:21:52;10.50;66.00
78345;DHT22;67620;51.134;6.548;2023-02-15T15:35:43;10.30;66.00
78345;DHT22;67620;51.134;6.548;2023-02-15T15:41:18;10.20;66.70
78345;DHT22;67620;51.134;6.548;2023-02-15T15:49:26;10.10;68.10
78345;DHT22;67620;51.134;6.548;2023-02-15T15:51:53;10.00;68.40
78345;DHT22;67620;51.134;6.548;2023-02-15T15:54:22;10.00;68.30
78345;DHT22;67620;51.134;6.548;2023-02-15T15:56:51;9.90;69.00
78345;DHT22;67620;51.134;6.548;2023-02-15T15:59:25;9.80;69.10
78345;DHT22;67620;51.134;6.548;2023-02-15T16:01:50;9.80;69.80
78345;DHT22;67620;51.134;6.548;2023-02-15T16:04:28;9.70;69.80
78345;DHT22;67620;51.134;6.548;2023-02-15T16:06:56;9.60;70.10
78345;DHT22;67620;51.134;6.548;2023-02-15T16:09:26;9.50;70.30
78345;DHT22;67620;51.134;6.548;2023-02-15T16:11:55;9.40;69.90
78345;DHT22;67620;51.134;6.548;2023-02-15T16:14:30;9.40;69.90
78345;DHT22;67620;51.134;6.548;2023-02-15T16:17:01;9.30;69.80
78345;DHT22;67620;51.134;6.548;2023-02-15T16:19:34;9.20;69.90
78345;DHT22;67620;51.134;6.548;2023-02-15T16:22:02;9.20;69.70
78345;DHT22;67620;51.134;6.548;2023-02-15T16:32:46;8.90;69.40
78345;DHT22;67620;51.134;6.548;2023-02-15T16:35:16;8.90;69.30
78345;DHT22;67620;51.134;6.548;2023-02-15T16:37:42;8.90;69.40
78345;DHT22;67620;51.134;6.548;2023-02-15T16:40:25;8.90;69.10
78345;DHT22;67620;51.134;6.548;2023-02-15T16:42:56;8.80;69.40
78345;DHT22;67620;51.134;6.548;2023-02-15T16:45:24;8.60;69.20
78345;DHT22;67620;51.134;6.548;2023-02-15T16:47:54;8.50;69.40
78345;DHT22;67620;51.134;6.548;2023-02-15T16:50:31;8.40;69.50
78345;DHT22;67620;51.134;6.548;2023-02-15T16:52:57;8.50;69.10
78345;DHT22;67620;51.134;6.548;2023-02-15T16:55:26;8.50;68.90
78345;DHT22;67620;51.134;6.548;2023-02-15T16:57:57;8.40;68.40
78345;DHT22;67620;51.134;6.548;2023-02-15T17:00:26;8.50;68.20
78345;DHT22;67620;51.134;6.548;2023-02-15T17:03:20;8.50;68.10
78345;DHT22;67620;51.134;6.548;2023-02-15T17:05:50;8.50;68.20
78345;DHT22;67620;51.134;6.548;2023-02-15T17:08:23;8.40;68.40
78345;DHT22;67620;51.134;6.548;2023-02-15T17:11:04;8.30;68.60
78345;DHT22;67620;51.134;6.548;2023-02-15T17:13:30;8.30;68.70
78345;DHT22;67620;51.134;6.548;2023-02-15T17:18:40;8.20;68.80
78345;DHT22;67620;51.134;6.548;2023-02-15T17:21:18;8.10;68.70
78345;DHT22;67620;51.134;6.548;2023-02-15T17:23:47;7.90;69.30
78345;DHT22;67620;51.134;6.548;2023-02-15T17:28:50;7.90;69.10
78345;DHT22;67620;51.134;6.548;2023-02-15T17:31:18;7.80;69.30
78345;DHT22;67620;51.134;6.548;2023-02-15T17:33:45;7.90;69.20
78345;DHT22;67620;51.134;6.548;2023-02-15T17:36:19;7.90;69.10
78345;DHT22;67620;51.134;6.548;2023-02-15T17:39:18;7.80;69.00
78345;DHT22;67620;51.134;6.548;2023-02-15T17:41:44;7.70;69.90
78345;DHT22;67620;51.134;6.548;2023-02-15T17:44:09;7.60;69.80
78345;DHT22;67620;51.134;6.548;2023-02-15T17:46:39;7.60;70.00
78345;DHT22;67620;51.134;6.548;2023-02-15T17:49:06;7.60;69.60
78345;DHT22;67620;51.134;6.548;2023-02-15T17:51:32;7.50;69.80
78345;DHT22;67620;51.134;6.548;2023-02-15T17:54:01;7.60;69.80
78345;DHT22;67620;51.134;6.548;2023-02-15T17:56:45;7.50;69.80
78345;DHT22;67620;51.134;6.548;2023-02-15T17:59:11;7.50;69.50
78345;DHT22;67620;51.134;6.548;2023-02-15T18:01:46;7.50;69.40
78345;DHT22;67620;51.134;6.548;2023-02-15T18:04:32;7.30;69.80
78345;DHT22;67620;51.134;6.548;2023-02-15T18:07:17;7.30;70.00
78345;DHT22;67620;51.134;6.548;2023-02-15T18:10:15;7.20;70.00
78345;DHT22;67620;51.134;6.548;2023-02-15T18:12:59;7.20;70.00
78345;DHT22;67620;51.134;6.548;2023-02-15T18:15:25;7.20;69.70
78345;DHT22;67620;51.134;6.548;2023-02-15T18:17:51;7.10;69.80
78345;DHT22;67620;51.134;6.548;2023-02-15T18:22:42;7.10;69.80
78345;DHT22;67620;51.134;6.548;2023-02-15T18:25:13;7.00;70.20
78345;DHT22;67620;51.134;6.548;2023-02-15T18:27:38;7.00;70.20
78345;DHT22;67620;51.134;6.548;2023-02-15T18:30:05;7.00;70.20